KIAB/IAB METAR and TAF weather

Enter ICAO airport designator
Station Type Date Time Source
KIAB METAR 2022/10/01 06:55 UTC NOAA

KIAB 010655Z AUTO 00000KT 10SM FEW160 17/05 A3002 RMK AO2 SLP158 T01660049


Station Type Date Time Source
KIAB Decoded METAR 2022/10/01 06:55 UTC NOAA

McConnell Air Force Base, KS, United States (KIAB) 37-37N 097-16W
Oct 01, 2022 - 02:55 AM EDT / 2022.10.01 0655 UTC
Wind: Calm:0
Visibility: 10 mile(s):0
Sky conditions: mostly clear
Temperature: 61.9 F (16.6 C)
Dew Point: 40.8 F (4.9 C)
Relative Humidity: 45%
Pressure (altimeter): 30.02 in. Hg (1016 hPa)
ob: KIAB 010655Z AUTO 00000KT 10SM FEW160 17/05 A3002 RMK AO2 SLP158 T01660049
cycle: 7

Station Type Date Time Source
KIAB TAF 2022/09/30 22:39 UTC NOAA

TAF
AMD KIAB 302235Z 3022/0124 19010G17KT 9999 SCT120 BKN250 QNH2998INS
BECMG 3023/3024 16009KT 9999 FEW120 BKN250 QNH2998INS
BECMG 0116/0117 12009KT 9999 SCT120 BKN250 QNH3005INS TX26/3022Z TN13/0112Z LAST NO
AMDS AFT 3022 NEXT 0110

Example: see airport list